sensor_id;sensor_type;location;lat;lon;timestamp;P1;durP1;ratioP1;P2;durP2;ratioP2
52650;SDS011;38537;47.226;39.702;2022-09-09T00:00:46;5.75;;;3.22;;
52650;SDS011;38537;47.226;39.702;2022-09-09T00:03:20;6.43;;;3.20;;
52650;SDS011;38537;47.226;39.702;2022-09-09T00:06:11;6.93;;;3.60;;
52650;SDS011;38537;47.226;39.702;2022-09-09T00:11:36;8.45;;;3.83;;
52650;SDS011;38537;47.226;39.702;2022-09-09T00:17:28;8.57;;;3.58;;
52650;SDS011;38537;47.226;39.702;2022-09-09T00:22:55;10.75;;;3.05;;
52650;SDS011;38537;47.226;39.702;2022-09-09T00:25:29;8.80;;;3.28;;
52650;SDS011;38537;47.226;39.702;2022-09-09T00:28:08;7.40;;;3.05;;
52650;SDS011;38537;47.226;39.702;2022-09-09T00:30:44;6.20;;;3.20;;
52650;SDS011;38537;47.226;39.702;2022-09-09T00:33:16;6.72;;;3.30;;
52650;SDS011;38537;47.226;39.702;2022-09-09T00:35:51;5.28;;;3.38;;
52650;SDS011;38537;47.226;39.702;2022-09-09T00:38:25;6.70;;;3.25;;
52650;SDS011;38537;47.226;39.702;2022-09-09T00:41:09;7.63;;;3.70;;
52650;SDS011;38537;47.226;39.702;2022-09-09T00:43:45;8.82;;;3.20;;
52650;SDS011;38537;47.226;39.702;2022-09-09T00:46:34;6.60;;;2.95;;
52650;SDS011;38537;47.226;39.702;2022-09-09T00:50:08;9.82;;;3.42;;
52650;SDS011;38537;47.226;39.702;2022-09-09T00:57:41;10.07;;;4.00;;
52650;SDS011;38537;47.226;39.702;2022-09-09T01:00:25;11.63;;;4.57;;
52650;SDS011;38537;47.226;39.702;2022-09-09T01:08:01;9.23;;;4.75;;
52650;SDS011;38537;47.226;39.702;2022-09-09T01:13:28;7.80;;;4.90;;
52650;SDS011;38537;47.226;39.702;2022-09-09T01:16:02;6.57;;;3.97;;
52650;SDS011;38537;47.226;39.702;2022-09-09T01:18:41;13.93;;;7.57;;
52650;SDS011;38537;47.226;39.702;2022-09-09T01:21:19;6.85;;;5.38;;
52650;SDS011;38537;47.226;39.702;2022-09-09T01:26:52;12.20;;;5.63;;
52650;SDS011;38537;47.226;39.702;2022-09-09T01:29:25;16.20;;;8.18;;
52650;SDS011;38537;47.226;39.702;2022-09-09T01:31:53;13.15;;;7.47;;
52650;SDS011;38537;47.226;39.702;2022-09-09T01:34:25;12.15;;;7.93;;
52650;SDS011;38537;47.226;39.702;2022-09-09T01:37:02;14.98;;;8.25;;
52650;SDS011;38537;47.226;39.702;2022-09-09T01:39:32;17.88;;;9.05;;
52650;SDS011;38537;47.226;39.702;2022-09-09T01:42:06;16.23;;;8.98;;
52650;SDS011;38537;47.226;39.702;2022-09-09T01:44:36;13.45;;;7.07;;
52650;SDS011;38537;47.226;39.702;2022-09-09T01:47:05;11.02;;;6.95;;
52650;SDS011;38537;47.226;39.702;2022-09-09T01:49:38;9.88;;;6.32;;
52650;SDS011;38537;47.226;39.702;2022-09-09T01:52:15;8.30;;;4.50;;
52650;SDS011;38537;47.226;39.702;2022-09-09T01:54:42;8.25;;;5.25;;
52650;SDS011;38537;47.226;39.702;2022-09-09T01:57:25;10.50;;;5.78;;
52650;SDS011;38537;47.226;39.702;2022-09-09T02:00:05;11.52;;;6.60;;
52650;SDS011;38537;47.226;39.702;2022-09-09T02:05:41;13.15;;;6.47;;
52650;SDS011;38537;47.226;39.702;2022-09-09T02:08:36;9.68;;;5.63;;
52650;SDS011;38537;47.226;39.702;2022-09-09T02:11:15;15.40;;;7.10;;
52650;SDS011;38537;47.226;39.702;2022-09-09T02:14:12;10.68;;;6.05;;
52650;SDS011;38537;47.226;39.702;2022-09-09T02:19:35;10.00;;;5.60;;
52650;SDS011;38537;47.226;39.702;2022-09-09T02:22:25;18.02;;;6.47;;
52650;SDS011;38537;47.226;39.702;2022-09-09T02:24:57;13.65;;;6.72;;
52650;SDS011;38537;47.226;39.702;2022-09-09T02:27:29;26.67;;;8.27;;
52650;SDS011;38537;47.226;39.702;2022-09-09T02:29:56;22.65;;;8.25;;
52650;SDS011;38537;47.226;39.702;2022-09-09T02:32:52;14.93;;;6.57;;
52650;SDS011;38537;47.226;39.702;2022-09-09T02:35:35;29.30;;;7.78;;
52650;SDS011;38537;47.226;39.702;2022-09-09T02:38:05;25.02;;;8.65;;
52650;SDS011;38537;47.226;39.702;2022-09-09T02:40:37;46.58;;;9.23;;
52650;SDS011;38537;47.226;39.702;2022-09-09T02:43:05;27.00;;;7.70;;
52650;SDS011;38537;47.226;39.702;2022-09-09T02:45:57;22.20;;;6.88;;
52650;SDS011;38537;47.226;39.702;2022-09-09T02:48:59;42.47;;;9.45;;
52650;SDS011;38537;47.226;39.702;2022-09-09T02:51:44;30.55;;;8.65;;
52650;SDS011;38537;47.226;39.702;2022-09-09T02:54:29;28.92;;;7.55;;
52650;SDS011;38537;47.226;39.702;2022-09-09T02:59:35;30.77;;;7.68;;
52650;SDS011;38537;47.226;39.702;2022-09-09T03:02:04;21.65;;;6.55;;
52650;SDS011;38537;47.226;39.702;2022-09-09T03:04:32;20.02;;;6.60;;
52650;SDS011;38537;47.226;39.702;2022-09-09T03:06:59;15.45;;;5.85;;
52650;SDS011;38537;47.226;39.702;2022-09-09T03:09:27;13.00;;;5.57;;
52650;SDS011;38537;47.226;39.702;2022-09-09T03:11:55;13.23;;;5.60;;
52650;SDS011;38537;47.226;39.702;2022-09-09T03:14:24;21.38;;;5.85;;
52650;SDS011;38537;47.226;39.702;2022-09-09T03:16:52;16.65;;;5.57;;
52650;SDS011;38537;47.226;39.702;2022-09-09T03:19:21;10.98;;;5.30;;
52650;SDS011;38537;47.226;39.702;2022-09-09T03:21:49;16.05;;;5.50;;
52650;SDS011;38537;47.226;39.702;2022-09-09T03:24:17;11.95;;;5.82;;
52650;SDS011;38537;47.226;39.702;2022-09-09T03:26:44;16.23;;;5.57;;
52650;SDS011;38537;47.226;39.702;2022-09-09T03:29:14;17.95;;;5.68;;
52650;SDS011;38537;47.226;39.702;2022-09-09T03:31:43;21.27;;;6.55;;
52650;SDS011;38537;47.226;39.702;2022-09-09T03:34:11;13.95;;;6.20;;
52650;SDS011;38537;47.226;39.702;2022-09-09T03:36:39;16.60;;;6.57;;
52650;SDS011;38537;47.226;39.702;2022-09-09T03:39:08;13.10;;;6.75;;
52650;SDS011;38537;47.226;39.702;2022-09-09T03:41:37;42.72;;;26.52;;
52650;SDS011;38537;47.226;39.702;2022-09-09T03:44:05;28.60;;;18.05;;
52650;SDS011;38537;47.226;39.702;2022-09-09T03:46:38;17.33;;;11.02;;
52650;SDS011;38537;47.226;39.702;2022-09-09T03:49:06;25.92;;;13.55;;
52650;SDS011;38537;47.226;39.702;2022-09-09T03:51:34;24.63;;;11.65;;
52650;SDS011;38537;47.226;39.702;2022-09-09T03:54:04;17.67;;;11.30;;
52650;SDS011;38537;47.226;39.702;2022-09-09T03:56:35;19.25;;;9.75;;
52650;SDS011;38537;47.226;39.702;2022-09-09T03:59:03;18.08;;;8.45;;
52650;SDS011;38537;47.226;39.702;2022-09-09T04:01:30;17.08;;;9.15;;
52650;SDS011;38537;47.226;39.702;2022-09-09T04:03:58;24.63;;;10.32;;
52650;SDS011;38537;47.226;39.702;2022-09-09T04:06:26;17.25;;;8.95;;
52650;SDS011;38537;47.226;39.702;2022-09-09T04:08:55;13.57;;;7.50;;
52650;SDS011;38537;47.226;39.702;2022-09-09T04:11:25;12.77;;;6.32;;
52650;SDS011;38537;47.226;39.702;2022-09-09T04:13:54;13.60;;;6.70;;
52650;SDS011;38537;47.226;39.702;2022-09-09T04:16:22;13.95;;;7.13;;
52650;SDS011;38537;47.226;39.702;2022-09-09T04:18:50;15.20;;;6.85;;
52650;SDS011;38537;47.226;39.702;2022-09-09T04:21:18;12.02;;;7.03;;
52650;SDS011;38537;47.226;39.702;2022-09-09T04:23:45;17.58;;;9.30;;
52650;SDS011;38537;47.226;39.702;2022-09-09T04:26:13;16.45;;;8.77;;
52650;SDS011;38537;47.226;39.702;2022-09-09T04:28:40;14.32;;;7.95;;
52650;SDS011;38537;47.226;39.702;2022-09-09T04:33:52;17.35;;;8.30;;
52650;SDS011;38537;47.226;39.702;2022-09-09T04:36:21;17.95;;;9.05;;
52650;SDS011;38537;47.226;39.702;2022-09-09T04:38:51;13.43;;;6.40;;
52650;SDS011;38537;47.226;39.702;2022-09-09T04:41:19;14.77;;;8.57;;
52650;SDS011;38537;47.226;39.702;2022-09-09T04:43:51;14.60;;;9.25;;
52650;SDS011;38537;47.226;39.702;2022-09-09T04:46:21;12.30;;;7.20;;
52650;SDS011;38537;47.226;39.702;2022-09-09T04:48:50;12.02;;;7.57;;
52650;SDS011;38537;47.226;39.702;2022-09-09T04:51:19;20.30;;;9.23;;
52650;SDS011;38537;47.226;39.702;2022-09-09T04:53:48;11.13;;;7.03;;
52650;SDS011;38537;47.226;39.702;2022-09-09T04:56:18;13.43;;;8.63;;
52650;SDS011;38537;47.226;39.702;2022-09-09T04:58:50;14.80;;;7.15;;
52650;SDS011;38537;47.226;39.702;2022-09-09T05:01:23;14.32;;;7.40;;
52650;SDS011;38537;47.226;39.702;2022-09-09T05:03:53;12.32;;;6.88;;
52650;SDS011;38537;47.226;39.702;2022-09-09T05:06:22;12.93;;;7.22;;
52650;SDS011;38537;47.226;39.702;2022-09-09T05:08:57;11.25;;;6.43;;
52650;SDS011;38537;47.226;39.702;2022-09-09T05:11:28;11.30;;;6.32;;
52650;SDS011;38537;47.226;39.702;2022-09-09T05:14:05;12.35;;;5.88;;
52650;SDS011;38537;47.226;39.702;2022-09-09T05:16:32;14.60;;;5.95;;
52650;SDS011;38537;47.226;39.702;2022-09-09T05:19:00;13.10;;;5.85;;
52650;SDS011;38537;47.226;39.702;2022-09-09T05:21:40;10.70;;;5.43;;
52650;SDS011;38537;47.226;39.702;2022-09-09T05:24:08;11.30;;;5.45;;
52650;SDS011;38537;47.226;39.702;2022-09-09T05:26:36;13.65;;;5.78;;
52650;SDS011;38537;47.226;39.702;2022-09-09T05:29:03;16.33;;;5.57;;
52650;SDS011;38537;47.226;39.702;2022-09-09T05:31:30;10.77;;;5.72;;
52650;SDS011;38537;47.226;39.702;2022-09-09T05:34:02;12.90;;;5.40;;
52650;SDS011;38537;47.226;39.702;2022-09-09T05:36:30;11.80;;;5.72;;
52650;SDS011;38537;47.226;39.702;2022-09-09T05:38:58;14.60;;;6.70;;
52650;SDS011;38537;47.226;39.702;2022-09-09T05:41:27;19.30;;;7.00;;
52650;SDS011;38537;47.226;39.702;2022-09-09T05:43:57;14.32;;;6.40;;
52650;SDS011;38537;47.226;39.702;2022-09-09T05:46:25;10.52;;;6.10;;
52650;SDS011;38537;47.226;39.702;2022-09-09T05:48:54;15.10;;;6.32;;
52650;SDS011;38537;47.226;39.702;2022-09-09T05:51:29;12.63;;;6.25;;
52650;SDS011;38537;47.226;39.702;2022-09-09T05:54:01;11.05;;;5.97;;
52650;SDS011;38537;47.226;39.702;2022-09-09T05:56:32;14.65;;;6.40;;
52650;SDS011;38537;47.226;39.702;2022-09-09T05:59:00;16.00;;;6.18;;
52650;SDS011;38537;47.226;39.702;2022-09-09T06:01:29;10.85;;;6.47;;
52650;SDS011;38537;47.226;39.702;2022-09-09T06:04:02;14.82;;;6.03;;
52650;SDS011;38537;47.226;39.702;2022-09-09T06:06:32;12.73;;;6.22;;
52650;SDS011;38537;47.226;39.702;2022-09-09T06:09:11;10.90;;;5.60;;
52650;SDS011;38537;47.226;39.702;2022-09-09T06:11:40;14.13;;;5.70;;
52650;SDS011;38537;47.226;39.702;2022-09-09T06:14:10;11.68;;;5.75;;
52650;SDS011;38537;47.226;39.702;2022-09-09T06:16:39;10.40;;;5.25;;
52650;SDS011;38537;47.226;39.702;2022-09-09T06:19:17;10.95;;;5.55;;
52650;SDS011;38537;47.226;39.702;2022-09-09T06:21:46;9.68;;;5.45;;
52650;SDS011;38537;47.226;39.702;2022-09-09T06:24:15;10.25;;;4.75;;
52650;SDS011;38537;47.226;39.702;2022-09-09T06:26:45;12.85;;;5.82;;
52650;SDS011;38537;47.226;39.702;2022-09-09T06:29:18;10.13;;;4.75;;
52650;SDS011;38537;47.226;39.702;2022-09-09T06:31:45;10.38;;;5.30;;
52650;SDS011;38537;47.226;39.702;2022-09-09T06:34:19;9.48;;;5.03;;
52650;SDS011;38537;47.226;39.702;2022-09-09T06:36:51;10.80;;;5.18;;
52650;SDS011;38537;47.226;39.702;2022-09-09T06:39:18;12.18;;;5.70;;
52650;SDS011;38537;47.226;39.702;2022-09-09T06:41:46;12.40;;;5.60;;
52650;SDS011;38537;47.226;39.702;2022-09-09T06:44:32;10.63;;;5.88;;
52650;SDS011;38537;47.226;39.702;2022-09-09T06:47:03;7.90;;;5.20;;
52650;SDS011;38537;47.226;39.702;2022-09-09T06:49:32;9.02;;;5.15;;
52650;SDS011;38537;47.226;39.702;2022-09-09T06:52:01;10.27;;;4.93;;
52650;SDS011;38537;47.226;39.702;2022-09-09T06:54:29;11.43;;;5.18;;
52650;SDS011;38537;47.226;39.702;2022-09-09T06:56:57;13.60;;;4.82;;
52650;SDS011;38537;47.226;39.702;2022-09-09T06:59:30;8.45;;;4.80;;
52650;SDS011;38537;47.226;39.702;2022-09-09T07:01:58;7.72;;;4.97;;
52650;SDS011;38537;47.226;39.702;2022-09-09T07:04:26;11.00;;;5.40;;
52650;SDS011;38537;47.226;39.702;2022-09-09T07:06:53;7.28;;;4.65;;
52650;SDS011;38537;47.226;39.702;2022-09-09T07:09:23;8.48;;;4.63;;
52650;SDS011;38537;47.226;39.702;2022-09-09T07:11:52;8.05;;;4.93;;
52650;SDS011;38537;47.226;39.702;2022-09-09T07:14:22;9.05;;;5.00;;
52650;SDS011;38537;47.226;39.702;2022-09-09T07:17:02;8.10;;;4.75;;
52650;SDS011;38537;47.226;39.702;2022-09-09T07:19:35;12.32;;;5.43;;
52650;SDS011;38537;47.226;39.702;2022-09-09T07:22:04;11.23;;;5.40;;
52650;SDS011;38537;47.226;39.702;2022-09-09T07:24:34;8.63;;;4.97;;
52650;SDS011;38537;47.226;39.702;2022-09-09T07:27:02;7.93;;;4.75;;
52650;SDS011;38537;47.226;39.702;2022-09-09T07:29:30;9.13;;;5.05;;
52650;SDS011;38537;47.226;39.702;2022-09-09T07:31:58;9.93;;;4.85;;
52650;SDS011;38537;47.226;39.702;2022-09-09T07:34:31;9.98;;;5.35;;
52650;SDS011;38537;47.226;39.702;2022-09-09T07:36:58;7.93;;;4.78;;
52650;SDS011;38537;47.226;39.702;2022-09-09T07:39:26;8.43;;;5.05;;
52650;SDS011;38537;47.226;39.702;2022-09-09T07:41:54;8.00;;;5.10;;
52650;SDS011;38537;47.226;39.702;2022-09-09T07:44:23;7.70;;;4.68;;
52650;SDS011;38537;47.226;39.702;2022-09-09T07:47:05;9.77;;;5.30;;
52650;SDS011;38537;47.226;39.702;2022-09-09T07:49:37;7.50;;;5.20;;
52650;SDS011;38537;47.226;39.702;2022-09-09T07:52:06;9.07;;;5.18;;
52650;SDS011;38537;47.226;39.702;2022-09-09T07:54:35;11.85;;;5.30;;
52650;SDS011;38537;47.226;39.702;2022-09-09T07:57:05;8.27;;;5.28;;
52650;SDS011;38537;47.226;39.702;2022-09-09T07:59:34;10.50;;;5.28;;
52650;SDS011;38537;47.226;39.702;2022-09-09T08:02:08;8.02;;;5.20;;
52650;SDS011;38537;47.226;39.702;2022-09-09T08:04:37;7.38;;;4.82;;
52650;SDS011;38537;47.226;39.702;2022-09-09T08:07:04;9.73;;;4.93;;
52650;SDS011;38537;47.226;39.702;2022-09-09T08:09:39;9.20;;;5.05;;
52650;SDS011;38537;47.226;39.702;2022-09-09T08:12:13;8.40;;;4.85;;
52650;SDS011;38537;47.226;39.702;2022-09-09T08:14:41;6.65;;;4.82;;
52650;SDS011;38537;47.226;39.702;2022-09-09T08:17:08;9.30;;;5.32;;
52650;SDS011;38537;47.226;39.702;2022-09-09T08:19:36;7.57;;;4.75;;
52650;SDS011;38537;47.226;39.702;2022-09-09T08:22:10;9.32;;;5.30;;
52650;SDS011;38537;47.226;39.702;2022-09-09T08:24:38;9.23;;;4.78;;
52650;SDS011;38537;47.226;39.702;2022-09-09T08:27:08;7.28;;;4.72;;
52650;SDS011;38537;47.226;39.702;2022-09-09T08:29:37;7.40;;;4.32;;
52650;SDS011;38537;47.226;39.702;2022-09-09T08:32:05;7.03;;;4.70;;
52650;SDS011;38537;47.226;39.702;2022-09-09T08:34:34;9.23;;;5.05;;
52650;SDS011;38537;47.226;39.702;2022-09-09T08:37:10;12.60;;;5.03;;
52650;SDS011;38537;47.226;39.702;2022-09-09T08:39:39;8.43;;;4.72;;
52650;SDS011;38537;47.226;39.702;2022-09-09T08:50:59;10.07;;;5.72;;
52650;SDS011;38537;47.226;39.702;2022-09-09T08:53:42;8.48;;;5.20;;
52650;SDS011;38537;47.226;39.702;2022-09-09T08:56:16;10.25;;;5.03;;
52650;SDS011;38537;47.226;39.702;2022-09-09T08:58:52;10.30;;;5.25;;
52650;SDS011;38537;47.226;39.702;2022-09-09T09:01:41;8.63;;;5.03;;
52650;SDS011;38537;47.226;39.702;2022-09-09T09:04:29;8.80;;;4.97;;
52650;SDS011;38537;47.226;39.702;2022-09-09T09:07:32;8.20;;;4.88;;
52650;SDS011;38537;47.226;39.702;2022-09-09T09:10:30;8.23;;;5.00;;
52650;SDS011;38537;47.226;39.702;2022-09-09T09:13:15;9.55;;;4.90;;
52650;SDS011;38537;47.226;39.702;2022-09-09T09:15:54;10.10;;;4.95;;
52650;SDS011;38537;47.226;39.702;2022-09-09T09:18:25;9.82;;;5.18;;
52650;SDS011;38537;47.226;39.702;2022-09-09T09:21:03;11.38;;;4.65;;
52650;SDS011;38537;47.226;39.702;2022-09-09T09:26:34;7.53;;;3.75;;
52650;SDS011;38537;47.226;39.702;2022-09-09T09:29:12;6.78;;;3.33;;
52650;SDS011;38537;47.226;39.702;2022-09-09T09:31:45;4.78;;;3.15;;
52650;SDS011;38537;47.226;39.702;2022-09-09T09:34:18;5.65;;;3.50;;
52650;SDS011;38537;47.226;39.702;2022-09-09T09:36:54;7.68;;;3.47;;
52650;SDS011;38537;47.226;39.702;2022-09-09T09:39:30;6.43;;;3.42;;
52650;SDS011;38537;47.226;39.702;2022-09-09T09:42:23;6.15;;;3.53;;
52650;SDS011;38537;47.226;39.702;2022-09-09T09:44:54;7.15;;;3.90;;
52650;SDS011;38537;47.226;39.702;2022-09-09T09:47:22;6.93;;;4.00;;
52650;SDS011;38537;47.226;39.702;2022-09-09T09:50:16;4.45;;;3.30;;
52650;SDS011;38537;47.226;39.702;2022-09-09T09:52:57;10.35;;;4.30;;
52650;SDS011;38537;47.226;39.702;2022-09-09T09:55:29;8.13;;;3.80;;
52650;SDS011;38537;47.226;39.702;2022-09-09T09:58:03;6.35;;;3.95;;
52650;SDS011;38537;47.226;39.702;2022-09-09T10:00:34;8.18;;;4.10;;
52650;SDS011;38537;47.226;39.702;2022-09-09T10:03:19;9.27;;;3.80;;
52650;SDS011;38537;47.226;39.702;2022-09-09T10:05:51;7.10;;;4.10;;
52650;SDS011;38537;47.226;39.702;2022-09-09T10:08:19;7.50;;;4.07;;
52650;SDS011;38537;47.226;39.702;2022-09-09T10:19:32;7.60;;;4.10;;
52650;SDS011;38537;47.226;39.702;2022-09-09T10:22:02;4.82;;;3.90;;
52650;SDS011;38537;47.226;39.702;2022-09-09T10:24:54;9.45;;;3.97;;
52650;SDS011;38537;47.226;39.702;2022-09-09T10:36:33;8.50;;;4.47;;
52650;SDS011;38537;47.226;39.702;2022-09-09T10:39:48;7.05;;;4.40;;
52650;SDS011;38537;47.226;39.702;2022-09-09T10:50:45;8.07;;;4.80;;
52650;SDS011;38537;47.226;39.702;2022-09-09T10:56:32;9.48;;;5.03;;
52650;SDS011;38537;47.226;39.702;2022-09-09T10:59:12;8.52;;;4.38;;
52650;SDS011;38537;47.226;39.702;2022-09-09T11:01:48;7.80;;;4.55;;
52650;SDS011;38537;47.226;39.702;2022-09-09T11:04:21;7.93;;;4.30;;
52650;SDS011;38537;47.226;39.702;2022-09-09T11:06:54;8.10;;;4.40;;
52650;SDS011;38537;47.226;39.702;2022-09-09T11:09:24;7.28;;;4.75;;
52650;SDS011;38537;47.226;39.702;2022-09-09T11:11:56;8.07;;;4.60;;
52650;SDS011;38537;47.226;39.702;2022-09-09T11:14:33;11.48;;;4.85;;
52650;SDS011;38537;47.226;39.702;2022-09-09T11:17:15;8.95;;;4.50;;
52650;SDS011;38537;47.226;39.702;2022-09-09T11:19:45;8.32;;;4.20;;
52650;SDS011;38537;47.226;39.702;2022-09-09T11:22:17;7.60;;;4.22;;
52650;SDS011;38537;47.226;39.702;2022-09-09T11:25:43;6.85;;;4.47;;
52650;SDS011;38537;47.226;39.702;2022-09-09T11:33:29;6.88;;;4.15;;
52650;SDS011;38537;47.226;39.702;2022-09-09T11:44:41;7.20;;;4.53;;
52650;SDS011;38537;47.226;39.702;2022-09-09T11:47:26;7.82;;;4.25;;
52650;SDS011;38537;47.226;39.702;2022-09-09T11:50:08;7.15;;;4.13;;
52650;SDS011;38537;47.226;39.702;2022-09-09T11:52:42;9.63;;;4.90;;
52650;SDS011;38537;47.226;39.702;2022-09-09T11:55:25;12.30;;;5.13;;
52650;SDS011;38537;47.226;39.702;2022-09-09T11:58:03;6.88;;;4.50;;
52650;SDS011;38537;47.226;39.702;2022-09-09T12:00:34;6.13;;;4.05;;
52650;SDS011;38537;47.226;39.702;2022-09-09T12:03:04;11.40;;;4.93;;
52650;SDS011;38537;47.226;39.702;2022-09-09T12:05:40;9.90;;;5.07;;
52650;SDS011;38537;47.226;39.702;2022-09-09T12:08:15;10.10;;;4.90;;
52650;SDS011;38537;47.226;39.702;2022-09-09T12:10:53;16.95;;;4.80;;
52650;SDS011;38537;47.226;39.702;2022-09-09T12:13:24;10.18;;;4.93;;
52650;SDS011;38537;47.226;39.702;2022-09-09T12:15:57;9.32;;;4.80;;
52650;SDS011;38537;47.226;39.702;2022-09-09T12:21:17;8.50;;;4.63;;
52650;SDS011;38537;47.226;39.702;2022-09-09T12:24:13;8.43;;;4.38;;
52650;SDS011;38537;47.226;39.702;2022-09-09T12:32:17;11.35;;;4.78;;
52650;SDS011;38537;47.226;39.702;2022-09-09T12:37:52;10.98;;;5.18;;
52650;SDS011;38537;47.226;39.702;2022-09-09T12:40:28;10.85;;;4.85;;
52650;SDS011;38537;47.226;39.702;2022-09-09T12:45:44;9.85;;;4.78;;
52650;SDS011;38537;47.226;39.702;2022-09-09T12:48:12;7.80;;;4.72;;
52650;SDS011;38537;47.226;39.702;2022-09-09T12:50:46;10.65;;;4.63;;
52650;SDS011;38537;47.226;39.702;2022-09-09T12:53:21;8.18;;;4.32;;
52650;SDS011;38537;47.226;39.702;2022-09-09T12:55:59;8.05;;;4.82;;
52650;SDS011;38537;47.226;39.702;2022-09-09T12:58:30;9.65;;;4.57;;
52650;SDS011;38537;47.226;39.702;2022-09-09T13:01:02;13.73;;;4.30;;
52650;SDS011;38537;47.226;39.702;2022-09-09T13:03:32;10.70;;;4.47;;
52650;SDS011;38537;47.226;39.702;2022-09-09T13:06:13;7.03;;;3.78;;
52650;SDS011;38537;47.226;39.702;2022-09-09T13:08:50;7.32;;;3.90;;
52650;SDS011;38537;47.226;39.702;2022-09-09T13:11:38;5.90;;;3.80;;
52650;SDS011;38537;47.226;39.702;2022-09-09T13:14:26;8.10;;;3.92;;
52650;SDS011;38537;47.226;39.702;2022-09-09T13:16:58;5.05;;;3.80;;
52650;SDS011;38537;47.226;39.702;2022-09-09T13:19:28;7.65;;;3.92;;
52650;SDS011;38537;47.226;39.702;2022-09-09T13:22:00;7.18;;;3.72;;
52650;SDS011;38537;47.226;39.702;2022-09-09T13:24:39;6.57;;;3.85;;
52650;SDS011;38537;47.226;39.702;2022-09-09T13:27:30;8.20;;;3.28;;
52650;SDS011;38537;47.226;39.702;2022-09-09T13:30:00;6.75;;;3.35;;
52650;SDS011;38537;47.226;39.702;2022-09-09T13:32:29;5.97;;;3.55;;
52650;SDS011;38537;47.226;39.702;2022-09-09T13:34:58;5.75;;;3.40;;
52650;SDS011;38537;47.226;39.702;2022-09-09T13:40:04;9.57;;;3.60;;
52650;SDS011;38537;47.226;39.702;2022-09-09T13:42:36;5.93;;;3.45;;
52650;SDS011;38537;47.226;39.702;2022-09-09T13:45:15;7.50;;;3.55;;
52650;SDS011;38537;47.226;39.702;2022-09-09T13:47:47;8.50;;;3.50;;
52650;SDS011;38537;47.226;39.702;2022-09-09T13:50:19;8.55;;;3.53;;
52650;SDS011;38537;47.226;39.702;2022-09-09T13:52:57;6.28;;;3.28;;
52650;SDS011;38537;47.226;39.702;2022-09-09T13:55:36;5.80;;;3.30;;
52650;SDS011;38537;47.226;39.702;2022-09-09T13:58:03;4.28;;;3.20;;
52650;SDS011;38537;47.226;39.702;2022-09-09T14:00:33;7.35;;;2.92;;
52650;SDS011;38537;47.226;39.702;2022-09-09T14:03:03;6.10;;;3.30;;
52650;SDS011;38537;47.226;39.702;2022-09-09T14:05:31;8.25;;;3.33;;
52650;SDS011;38537;47.226;39.702;2022-09-09T14:08:00;7.22;;;3.08;;
52650;SDS011;38537;47.226;39.702;2022-09-09T14:10:31;5.68;;;2.97;;
52650;SDS011;38537;47.226;39.702;2022-09-09T14:12:58;4.57;;;2.88;;
52650;SDS011;38537;47.226;39.702;2022-09-09T14:15:26;4.97;;;3.00;;
52650;SDS011;38537;47.226;39.702;2022-09-09T14:17:53;4.30;;;2.60;;
52650;SDS011;38537;47.226;39.702;2022-09-09T14:20:21;7.40;;;2.50;;
52650;SDS011;38537;47.226;39.702;2022-09-09T14:22:48;4.13;;;2.50;;
52650;SDS011;38537;47.226;39.702;2022-09-09T14:25:16;3.88;;;2.70;;
52650;SDS011;38537;47.226;39.702;2022-09-09T14:27:44;5.53;;;2.40;;
52650;SDS011;38537;47.226;39.702;2022-09-09T14:30:12;3.75;;;2.72;;
52650;SDS011;38537;47.226;39.702;2022-09-09T14:32:39;5.28;;;2.58;;
52650;SDS011;38537;47.226;39.702;2022-09-09T14:35:07;4.28;;;2.20;;
52650;SDS011;38537;47.226;39.702;2022-09-09T14:37:35;4.38;;;2.38;;
52650;SDS011;38537;47.226;39.702;2022-09-09T14:40:02;4.72;;;2.63;;
52650;SDS011;38537;47.226;39.702;2022-09-09T14:42:30;6.00;;;2.22;;
52650;SDS011;38537;47.226;39.702;2022-09-09T14:44:57;6.28;;;2.40;;
52650;SDS011;38537;47.226;39.702;2022-09-09T14:47:24;5.85;;;2.95;;
52650;SDS011;38537;47.226;39.702;2022-09-09T14:49:53;5.88;;;2.78;;
52650;SDS011;38537;47.226;39.702;2022-09-09T14:52:21;7.30;;;2.88;;
52650;SDS011;38537;47.226;39.702;2022-09-09T14:54:48;4.68;;;3.00;;
52650;SDS011;38537;47.226;39.702;2022-09-09T14:57:16;4.53;;;2.55;;
52650;SDS011;38537;47.226;39.702;2022-09-09T14:59:43;8.02;;;2.72;;
52650;SDS011;38537;47.226;39.702;2022-09-09T15:02:11;4.30;;;2.63;;
52650;SDS011;38537;47.226;39.702;2022-09-09T15:04:40;9.65;;;2.88;;
52650;SDS011;38537;47.226;39.702;2022-09-09T15:07:08;7.10;;;2.70;;
52650;SDS011;38537;47.226;39.702;2022-09-09T15:09:35;4.55;;;2.95;;
52650;SDS011;38537;47.226;39.702;2022-09-09T15:12:03;5.38;;;2.78;;
52650;SDS011;38537;47.226;39.702;2022-09-09T15:14:31;5.93;;;3.05;;
52650;SDS011;38537;47.226;39.702;2022-09-09T15:16:59;6.32;;;2.95;;
52650;SDS011;38537;47.226;39.702;2022-09-09T15:19:27;4.30;;;2.60;;
52650;SDS011;38537;47.226;39.702;2022-09-09T15:21:54;5.10;;;2.95;;
52650;SDS011;38537;47.226;39.702;2022-09-09T15:24:22;6.35;;;2.80;;
52650;SDS011;38537;47.226;39.702;2022-09-09T15:26:50;6.13;;;3.00;;
52650;SDS011;38537;47.226;39.702;2022-09-09T15:29:17;5.88;;;2.60;;
52650;SDS011;38537;47.226;39.702;2022-09-09T15:31:45;5.70;;;2.83;;
52650;SDS011;38537;47.226;39.702;2022-09-09T15:34:13;6.45;;;3.08;;
52650;SDS011;38537;47.226;39.702;2022-09-09T15:36:42;5.28;;;2.72;;
52650;SDS011;38537;47.226;39.702;2022-09-09T15:39:11;4.93;;;2.80;;
52650;SDS011;38537;47.226;39.702;2022-09-09T15:41:42;5.43;;;2.70;;
52650;SDS011;38537;47.226;39.702;2022-09-09T15:44:13;9.07;;;3.22;;
52650;SDS011;38537;47.226;39.702;2022-09-09T15:46:43;10.43;;;3.92;;
52650;SDS011;38537;47.226;39.702;2022-09-09T15:51:42;11.05;;;3.40;;
52650;SDS011;38537;47.226;39.702;2022-09-09T15:54:14;9.20;;;3.42;;
52650;SDS011;38537;47.226;39.702;2022-09-09T15:56:45;7.95;;;3.55;;
52650;SDS011;38537;47.226;39.702;2022-09-09T15:59:15;10.07;;;3.60;;
52650;SDS011;38537;47.226;39.702;2022-09-09T16:01:42;9.38;;;3.40;;
52650;SDS011;38537;47.226;39.702;2022-09-09T16:04:10;9.05;;;3.60;;
52650;SDS011;38537;47.226;39.702;2022-09-09T16:06:39;6.80;;;3.67;;
52650;SDS011;38537;47.226;39.702;2022-09-09T16:09:07;8.15;;;2.78;;
52650;SDS011;38537;47.226;39.702;2022-09-09T16:11:36;12.40;;;4.65;;
52650;SDS011;38537;47.226;39.702;2022-09-09T16:14:05;12.35;;;4.60;;
52650;SDS011;38537;47.226;39.702;2022-09-09T16:16:33;9.25;;;5.15;;
52650;SDS011;38537;47.226;39.702;2022-09-09T16:19:03;8.60;;;5.03;;
52650;SDS011;38537;47.226;39.702;2022-09-09T16:21:34;12.20;;;5.53;;
52650;SDS011;38537;47.226;39.702;2022-09-09T16:24:07;11.90;;;5.65;;
52650;SDS011;38537;47.226;39.702;2022-09-09T16:26:37;12.82;;;5.90;;
52650;SDS011;38537;47.226;39.702;2022-09-09T16:29:07;12.32;;;5.95;;
52650;SDS011;38537;47.226;39.702;2022-09-09T16:31:35;14.10;;;6.60;;
52650;SDS011;38537;47.226;39.702;2022-09-09T16:34:03;12.18;;;6.85;;
52650;SDS011;38537;47.226;39.702;2022-09-09T16:36:31;15.75;;;7.38;;
52650;SDS011;38537;47.226;39.702;2022-09-09T16:39:02;13.85;;;6.82;;
52650;SDS011;38537;47.226;39.702;2022-09-09T16:41:31;11.13;;;6.82;;
52650;SDS011;38537;47.226;39.702;2022-09-09T16:44:04;15.45;;;7.10;;
52650;SDS011;38537;47.226;39.702;2022-09-09T16:46:42;15.25;;;7.45;;
52650;SDS011;38537;47.226;39.702;2022-09-09T16:49:12;13.73;;;7.20;;
52650;SDS011;38537;47.226;39.702;2022-09-09T16:51:42;14.38;;;7.28;;